createdAt,value
2018-12-02T00:00:01.178Z,1001.16
2018-12-02T00:15:01.225Z,1000.81
2018-12-02T00:30:01.221Z,1000.63
2018-12-02T00:35:01.058Z,1000.42
2018-12-02T00:45:01.235Z,1000.28
2018-12-02T01:00:01.256Z,1000.2
2018-12-02T01:15:01.578Z,999.87
2018-12-02T01:30:01.239Z,999.8
2018-12-02T01:45:01.283Z,999.3
2018-12-02T02:00:01.288Z,999.19
2018-12-02T02:05:01.041Z,999.09
2018-12-02T02:15:01.258Z,998.86
2018-12-02T02:30:01.266Z,998.64
2018-12-02T02:45:01.262Z,998.38
2018-12-02T03:00:01.362Z,998.24
2018-12-02T03:15:06.316Z,997.83
2018-12-02T03:30:06.401Z,997.65
2018-12-02T03:45:01.306Z,997.4
2018-12-02T04:00:02.463Z,997.4
2018-12-02T04:15:01.229Z,997.08
2018-12-02T04:20:01.122Z,997.08
2018-12-02T04:30:02.278Z,996.88
2018-12-02T04:45:01.282Z,996.63
2018-12-02T04:55:01.179Z,996.51
2018-12-02T05:00:01.253Z,996.51
2018-12-02T05:15:01.298Z,996.06
2018-12-02T05:30:01.305Z,995.94
2018-12-02T05:45:01.307Z,995.67
2018-12-02T06:00:01.341Z,995.46
2018-12-02T06:05:01.248Z,995.39
2018-12-02T06:15:01.335Z,995.48
2018-12-02T06:30:01.104Z,995.44
2018-12-02T06:45:01.176Z,995.2
2018-12-02T07:00:01.151Z,995.1
2018-12-02T07:15:01.159Z,995.07
2018-12-02T07:30:01.130Z,995.01
2018-12-02T07:45:01.130Z,995.07
2018-12-02T07:50:01.134Z,995.07
2018-12-02T08:00:01.136Z,994.92
2018-12-02T08:15:01.147Z,994.61
2018-12-02T08:20:01.184Z,994.61
2018-12-02T08:30:01.151Z,994.51
2018-12-02T08:40:01.157Z,994.36
2018-12-02T08:45:01.169Z,994.27
2018-12-02T08:55:01.187Z,994.22
2018-12-02T09:00:01.207Z,994.22
2018-12-02T09:15:01.179Z,994.13
2018-12-02T09:30:01.180Z,994.06
2018-12-02T09:35:01.196Z,994.05
2018-12-02T09:45:01.209Z,993.97
2018-12-02T09:55:01.213Z,993.65
2018-12-02T10:00:01.164Z,993.65
2018-12-02T10:15:01.213Z,993.32
2018-12-02T10:30:01.201Z,993.31
2018-12-02T10:35:01.180Z,993.38
2018-12-02T10:45:01.195Z,993.27
2018-12-02T11:00:01.161Z,993.04
2018-12-02T11:15:01.185Z,992.72
2018-12-02T11:30:01.210Z,992.63
2018-12-02T11:40:01.201Z,992.53
2018-12-02T11:45:01.231Z,992.53
2018-12-02T11:55:01.215Z,992.39
2018-12-02T12:00:01.221Z,992.39
2018-12-02T12:05:01.225Z,992.12
2018-12-02T12:15:01.358Z,992.05
2018-12-02T12:30:01.223Z,991.89
2018-12-02T12:45:01.237Z,991.64
2018-12-02T13:00:01.238Z,991.51
2018-12-02T13:15:01.256Z,991.4
2018-12-02T13:30:01.274Z,991.27
2018-12-02T13:45:01.281Z,991.16
2018-12-02T14:00:01.237Z,991.13
2018-12-02T14:15:01.267Z,991.01
2018-12-02T14:30:01.256Z,990.94
2018-12-02T14:45:01.255Z,990.97
2018-12-02T15:00:01.262Z,990.97
2018-12-02T15:15:01.266Z,990.97
2018-12-02T15:30:01.279Z,990.97
2018-12-02T15:45:01.247Z,990.97
2018-12-02T16:00:01.274Z,990.97
2018-12-02T16:15:01.304Z,990.97
2018-12-02T16:30:01.347Z,990.97
2018-12-02T16:45:01.349Z,990.97
2018-12-02T17:00:01.504Z,990.97
2018-12-02T17:15:01.360Z,990.97
2018-12-02T17:30:01.382Z,990.97
2018-12-02T17:45:01.365Z,990.97
2018-12-02T18:00:01.343Z,990.97
2018-12-02T18:15:01.370Z,990.97
2018-12-02T18:21:04.407Z,991.66
2018-12-02T18:40:00.960Z,991.76
2018-12-02T18:45:00.816Z,991.81
2018-12-02T19:00:00.906Z,991.97
2018-12-02T19:10:00.732Z,992.11
2018-12-02T19:15:01.137Z,992.12
2018-12-02T19:25:01.587Z,992.18
2018-12-02T19:30:02.541Z,992.18
2018-12-02T19:40:00.744Z,992.17
2018-12-02T19:45:01.017Z,992.29
2018-12-02T19:50:01.014Z,992.29
2018-12-02T20:00:01.120Z,992.23
2018-12-02T20:15:00.939Z,992.28
2018-12-02T20:30:01.850Z,992.41
2018-12-02T20:45:00.978Z,992.38
2018-12-02T21:00:00.811Z,992.35
2018-12-02T21:10:00.763Z,992.24
2018-12-02T21:15:01.361Z,992.27
2018-12-02T21:30:00.919Z,992.24
2018-12-02T21:45:00.896Z,992.2
2018-12-02T22:00:01.015Z,992.2
2018-12-02T22:15:01.186Z,992.23
2018-12-02T22:30:01.041Z,992.08
2018-12-02T22:35:01.132Z,992.02
2018-12-02T22:45:01.029Z,992.02
2018-12-02T23:00:01.086Z,992.01
2018-12-02T23:15:00.879Z,992.01
2018-12-02T23:20:00.718Z,992.01
2018-12-02T23:30:00.964Z,991.89
2018-12-02T23:45:00.890Z,991.67
2018-12-02T23:55:00.781Z,991.82
